Aérodrome :
LOGIN :

S'inscrire | Disclaimer

   EN    FR    IT 

 










Légende :    VFR   VFR Marginal   IFR   IFR Intensif   IFR Très Intensif
Visi : 
Plafond : 
>= 8 km
>= 3000ft
5 à 8 km
1000 à 3000 ft
1500m à 5 km
500 à 1000 ft
800 à 1500m
200 à 500 ft
< 800m
< 200 ft
Symboles :   Orages  Brouillard  Fortes neiges  Fortes précipitations  Vent > 20 kt
SIGMETs :   Divers  Orages  Givrage  Turbulence  Onde Orograph.  Cendres Volcan.







- Altitude de l'aérodrome : 412 ft
- Code IATA : ORE
- Voir les cartes d'approche


LFOJ - Orleans

DERNIER METAR :
  • 210730Z AUTO 08004KT 9999 OVC048 21/16 Q1021 NOSIG

METARs EXPIRÉS :
  • 210700Z AUTO VRB02KT 9999 OVC047 20/15 Q1021 NOSIG
  • 210630Z AUTO VRB03KT 9999 OVC046 19/15 Q1021 NOSIG
  • 210230Z AUTO 04002KT CAVOK 14/12 Q1020
  • 210600Z AUTO VRB01KT 9999 OVC047 17/14 Q1021 NOSIG
  • 210530Z AUTO VRB02KT 9999 OVC047 17/14 Q1021 NOSIG
  • 210500Z AUTO 03002KT 9999 OVC048 16/14 Q1020 NOSIG

TAF AMD TAF LFOJ
Valide du 21 à 05h jusqu'au 22 à 03h UTC


210430Z 2105/2203 02005KT 9999 OVC045
Pas de NOTAMs connus pour ce terrain.



MET'MAP, la Météo Aéronautique d'un coup d'oeil ! - Copyright ORBIFLY Décembre 2007 - Disclaimer

ORBIFLY MET'MAP TEAM :

Programmation & Développement : Alexandra Zaïnal
Conception & Développement : Baudouin d'Aumeries
Co-Programmation & Développement : Marc-Olivier Méhu
Soutien technique & logistique : Manuel Goepfert

Contact : metmap@orbifly.com




SOURCES & CREDITS :

   NOAA